Time;durP1;ratioP1;P1;durP2;ratioP2;P2;SDS_P1;SDS_P2;PMS_P1;PMS_P2;Temp;Humidity;BMP_temperature;BMP_pressure;BME280_temperature;BME280_humidity;BME280_pressure;Samples;Min_cycle;Max_cycle;Signal;HPM_P1;HPM_P2
2023/06/15 00:01:31;;;;;;;6.55;3.92;;;17.50;99.90;;;;;;12631977;23;20485;-81
2023/06/15 00:06:53;;;;;;;5.95;4.43;;;17.50;99.90;;;;;;12591629;23;20205;-80
2023/06/15 00:12:14;;;;;;;5.25;4.20;;;17.40;99.90;;;;;;12506594;23;20167;-79
2023/06/15 00:17:37;;;;;;;5.53;4.10;;;17.40;1.00;;;;;;12591888;23;20211;-81
2023/06/15 00:22:59;;;;;;;7.93;5.07;;;17.40;1.00;;;;;;12486469;23;20203;-80
2023/06/15 00:28:20;;;;;;;6.78;4.90;;;17.40;99.90;;;;;;12507359;23;20188;-80
2023/06/15 00:33:42;;;;;;;6.35;4.75;;;17.30;99.90;;;;;;12486079;23;20199;-79
2023/06/15 00:39:03;;;;;;;7.15;4.65;;;17.30;99.90;;;;;;12526665;23;20183;-81
2023/06/15 00:44:24;;;;;;;5.80;4.47;;;17.20;99.90;;;;;;12485699;23;20207;-80
2023/06/15 00:49:46;;;;;;;6.55;4.85;;;17.20;99.90;;;;;;12486078;23;20193;-81
2023/06/15 00:55:12;;;;;;;6.40;4.55;;;17.20;99.90;;;;;;12591264;23;20219;-80
2023/06/15 01:00:36;;;;;;;6.30;4.78;;;17.20;99.90;;;;;;12510830;23;20178;-81
2023/06/15 01:05:59;;;;;;;10.55;4.80;;;17.10;1.00;;;;;;12509039;23;20218;-79
2023/06/15 01:11:23;;;;;;;5.30;3.92;;;17.10;99.90;;;;;;12508044;23;20192;-79
2023/06/15 01:16:52;;;;;;;5.82;4.07;;;17.10;1.00;;;;;;12509766;23;20528;-79
2023/06/15 01:22:59;;;;;;;6.00;3.78;;;17.00;99.90;;;;;;12509675;23;20199;-79
2023/06/15 01:28:21;;;;;;;11.70;4.40;;;17.10;15.60;;;;;;12487847;23;20178;-80
2023/06/15 01:33:52;;;;;;;5.97;4.32;;;17.10;1.00;;;;;;12593200;23;20509;-79
2023/06/15 01:39:13;;;;;;;6.15;4.28;;;17.10;99.90;;;;;;12508829;23;20165;-79
2023/06/15 01:44:36;;;;;;;8.15;4.32;;;17.00;99.90;;;;;;12509585;23;20425;-80
2023/06/15 01:49:59;;;;;;;8.35;3.78;;;16.90;1.00;;;;;;12508574;23;20173;-79
2023/06/15 01:55:20;;;;;;;5.03;4.18;;;16.80;99.90;;;;;;12508091;23;20240;-79
2023/06/15 02:00:43;;;;;;;4.70;4.10;;;16.80;1.00;;;;;;12488293;23;20183;-80
2023/06/15 02:06:04;;;;;;;5.93;4.38;;;16.70;17.30;;;;;;12508332;23;20234;-79
2023/06/15 02:11:28;;;;;;;10.30;4.50;;;16.70;1.00;;;;;;12468459;23;20175;-79
2023/06/15 02:16:50;;;;;;;7.15;5.18;;;16.70;99.90;;;;;;12508436;23;20244;-79
2023/06/15 02:22:12;;;;;;;5.72;4.50;;;16.60;1.00;;;;;;12508422;23;20202;-80
2023/06/15 02:27:34;;;;;;;5.28;4.55;;;16.60;99.90;;;;;;12593654;23;20164;-79
2023/06/15 02:32:59;;;;;;;6.20;4.75;;;16.50;1.00;;;;;;12593851;23;20270;-79
2023/06/15 02:38:22;;;;;;;7.60;4.95;;;16.40;1.00;;;;;;12508451;23;20174;-79
2023/06/15 02:43:45;;;;;;;5.00;4.43;;;16.40;99.90;;;;;;12572704;23;20202;-79
2023/06/15 02:49:08;;;;;;;5.32;4.38;;;16.30;99.90;;;;;;12528934;23;20168;-79
2023/06/15 02:54:32;;;;;;;5.85;4.38;;;16.30;1.00;;;;;;12508419;23;20633;-79
2023/06/15 02:59:53;;;;;;;6.65;4.93;;;16.20;1.00;;;;;;12508124;23;20179;-79
2023/06/15 03:05:16;;;;;;;7.10;4.47;;;16.10;99.90;;;;;;12633238;23;20245;-79
2023/06/15 03:10:43;;;;;;;5.50;4.38;;;16.10;1.00;;;;;;12594450;23;20166;-79
2023/06/15 03:16:07;;;;;;;6.40;4.65;;;16.30;99.90;;;;;;12508008;23;20186;-79
2023/06/15 03:21:30;;;;;;;8.00;5.10;;;16.20;99.90;;;;;;12592805;23;20520;-80
2023/06/15 03:26:57;;;;;;;5.65;4.57;;;16.20;1.00;;;;;;12468011;23;20179;-80
2023/06/15 03:32:20;;;;;;;4.40;4.00;;;16.20;1.00;;;;;;12592885;23;20206;-81
2023/06/15 03:37:42;;;;;;;5.55;4.30;;;16.20;1.00;;;;;;12633110;23;20179;-79
2023/06/15 03:43:03;;;;;;;5.95;4.40;;;16.30;1.00;;;;;;12506604;23;20516;-79
2023/06/15 03:48:27;;;;;;;6.07;4.43;;;16.20;99.90;;;;;;12507877;23;20172;-80
2023/06/15 03:53:48;;;;;;;6.18;4.13;;;16.20;99.90;;;;;;12487695;23;20210;-78
2023/06/15 03:59:10;;;;;;;5.35;3.90;;;16.20;99.90;;;;;;12507541;23;20171;-79
2023/06/15 04:04:33;;;;;;;4.57;3.72;;;16.10;99.90;;;;;;12507134;23;20200;-79
2023/06/15 04:09:57;;;;;;;7.30;4.43;;;16.20;99.90;;;;;;12613035;23;20180;-79
2023/06/15 04:15:18;;;;;;;7.30;5.53;;;16.30;1.00;;;;;;12507691;23;20178;-79
2023/06/15 04:20:41;;;;;;;7.68;5.72;;;16.10;1.00;;;;;;12589973;23;20172;-78
2023/06/15 04:26:03;;;;;;;5.70;5.03;;;16.10;1.00;;;;;;12506694;23;20193;-79
2023/06/15 04:31:26;;;;;;;6.63;4.82;;;16.10;1.00;;;;;;12488351;23;20191;-80
2023/06/15 04:36:48;;;;;;;7.90;5.35;;;16.10;99.90;;;;;;12470048;23;20179;-81
2023/06/15 04:42:11;;;;;;;7.47;5.18;;;16.20;1.00;;;;;;12509517;23;20270;-79
2023/06/15 04:47:33;;;;;;;9.90;5.50;;;16.10;1.00;;;;;;12574900;23;20217;-80
2023/06/15 04:52:54;;;;;;;7.20;5.45;;;16.00;1.00;;;;;;12489813;23;20206;-79
2023/06/15 04:58:17;;;;;;;9.15;5.63;;;16.00;99.90;;;;;;12510858;23;20175;-80
2023/06/15 05:03:40;;;;;;;6.68;5.30;;;16.00;99.90;;;;;;12469929;23;20210;-79
2023/06/15 05:09:01;;;;;;;5.25;4.28;;;16.10;99.90;;;;;;12508404;23;20175;-81
2023/06/15 05:14:26;;;;;;;10.80;5.10;;;16.20;1.00;;;;;;12508945;23;20171;-78
2023/06/15 05:19:47;;;;;;;7.38;5.40;;;16.20;1.00;;;;;;12508899;23;20167;-78
2023/06/15 05:25:09;;;;;;;9.05;5.30;;;16.20;1.00;;;;;;12592763;23;20521;-78
2023/06/15 05:30:30;;;;;;;7.72;4.85;;;16.10;1.00;;;;;;12508504;23;20207;-79
2023/06/15 05:35:52;;;;;;;7.30;5.32;;;16.00;1.00;;;;;;12508819;23;20247;-79
2023/06/15 05:41:13;;;;;;;8.23;5.10;;;16.10;1.00;;;;;;12468079;23;20344;-79
2023/06/15 05:46:35;;;;;;;5.97;4.78;;;16.10;1.00;;;;;;12529313;23;20195;-79
2023/06/15 05:51:56;;;;;;;7.15;4.85;;;16.00;99.90;;;;;;12528456;23;20174;-79
2023/06/15 05:57:21;;;;;;;9.05;4.82;;;16.00;99.90;;;;;;12508282;23;20194;-79
2023/06/15 06:02:45;;;;;;;7.55;5.32;;;16.10;1.00;;;;;;12593711;23;20194;-79
2023/06/15 06:08:21;;;;;;;10.13;6.55;;;16.10;1.00;;;;;;12507875;23;20182;-79
2023/06/15 06:13:43;;;;;;;9.30;6.25;;;16.10;1.00;;;;;;12508360;23;20175;-79
2023/06/15 06:19:05;;;;;;;9.80;6.53;;;16.00;99.90;;;;;;12528737;23;20174;-80
2023/06/15 06:24:27;;;;;;;10.68;5.68;;;16.00;1.00;;;;;;12508026;23;20202;-80
2023/06/15 06:29:51;;;;;;;8.70;5.40;;;16.00;1.00;;;;;;12508415;23;20234;-80
2023/06/15 06:35:13;;;;;;;10.75;7.00;;;16.10;1.00;;;;;;12527985;23;20222;-80
2023/06/15 06:40:35;;;;;;;8.13;6.22;;;16.00;1.00;;;;;;12632210;23;20198;-80
2023/06/15 06:45:56;;;;;;;12.52;8.18;;;15.90;1.00;;;;;;12508091;23;20519;-80
2023/06/15 06:51:17;;;;;;;25.98;15.68;;;15.80;1.00;;;;;;12508011;23;20175;-80
2023/06/15 06:56:39;;;;;;;19.38;10.77;;;15.80;1.00;;;;;;12507168;23;20174;-79
2023/06/15 07:02:00;;;;;;;13.18;6.95;;;15.60;1.00;;;;;;12467771;23;20269;-80
2023/06/15 07:07:21;;;;;;;11.77;6.82;;;15.50;1.00;;;;;;12508919;23;20528;-78
2023/06/15 07:12:43;;;;;;;11.68;6.80;;;15.40;1.00;;;;;;12487788;23;20185;-79
2023/06/15 07:18:04;;;;;;;9.20;5.50;;;15.40;1.00;;;;;;12507788;23;20170;-79
2023/06/15 07:23:25;;;;;;;10.70;5.53;;;15.40;1.00;;;;;;12507355;23;20230;-79
2023/06/15 07:28:49;;;;;;;11.73;5.93;;;15.50;1.00;;;;;;12487756;23;20272;-83
2023/06/15 07:34:11;;;;;;;7.30;5.95;;;15.50;1.00;;;;;;12565639;23;20245;-84
2023/06/15 07:39:33;;;;;;;7.65;5.45;;;15.60;1.00;;;;;;12501499;23;20253;-80
2023/06/15 07:44:55;;;;;;;6.35;5.65;;;15.70;1.00;;;;;;12586703;23;20209;-83
2023/06/15 07:50:16;;;;;;;8.57;5.50;;;15.90;1.00;;;;;;12501979;23;20175;-81
2023/06/15 07:55:37;;;;;;;10.23;6.30;;;16.20;1.00;;;;;;12585988;23;20253;-79
2023/06/15 08:01:00;;;;;;;7.57;5.70;;;16.70;1.00;;;;;;12502175;23;20402;-80
2023/06/15 08:06:21;;;;;;;8.18;5.30;;;17.10;1.00;;;;;;12501445;23;20240;-79
2023/06/15 08:11:43;;;;;;;9.43;5.40;;;17.10;99.90;;;;;;12502929;23;20206;-80
2023/06/15 08:17:05;;;;;;;6.13;4.30;;;17.30;99.90;;;;;;12588204;23;20171;-80
2023/06/15 08:22:27;;;;;;;6.60;4.97;;;17.40;58.80;;;;;;12628793;23;20206;-80
2023/06/15 08:27:48;;;;;;;8.50;4.70;;;17.60;1.00;;;;;;12483693;23;20238;-79
2023/06/15 08:33:10;;;;;;;6.30;4.68;;;17.70;99.90;;;;;;12501546;23;20212;-76
2023/06/15 08:38:31;;;;;;;6.57;4.78;;;17.80;99.90;;;;;;12504125;23;20393;-76
2023/06/15 08:43:53;;;;;;;10.48;6.57;;;17.50;1.00;;;;;;12503818;23;20192;-77
2023/06/15 08:49:15;;;;;;;10.88;5.35;;;17.40;99.90;;;;;;12505142;23;20183;-78
2023/06/15 08:54:41;;;;;;;6.28;5.65;;;17.30;99.90;;;;;;12501736;23;20191;-75
2023/06/15 09:00:09;;;;;;;6.35;5.60;;;17.30;1.00;;;;;;12503883;23;20218;-76
2023/06/15 09:05:30;;;;;;;8.00;5.43;;;17.30;1.00;;;;;;12504555;23;20318;-77
2023/06/15 09:11:06;;;;;;;7.85;6.55;;;17.40;1.00;;;;;;12503769;23;20182;-75
2023/06/15 09:16:30;;;;;;;5.90;5.30;;;17.30;1.00;;;;;;12503384;23;20179;-76
2023/06/15 09:21:54;;;;;;;10.13;6.18;;;17.30;1.00;;;;;;12504037;23;20176;-82
2023/06/15 09:27:16;;;;;;;12.05;6.78;;;17.60;99.90;;;;;;12503496;23;20183;-76
2023/06/15 09:32:37;;;;;;;8.70;6.50;;;18.00;1.00;;;;;;12502353;23;20206;-77
2023/06/15 09:37:58;;;;;;;9.90;6.32;;;19.00;1.00;;;;;;12502018;23;20358;-78
2023/06/15 09:43:23;;;;;;;6.05;5.45;;;19.80;1.00;;;;;;12482429;23;20282;-78
2023/06/15 09:48:46;;;;;;;5.28;4.60;;;20.00;1.00;;;;;;12502829;23;20211;-82
2023/06/15 09:54:08;;;;;;;6.30;4.00;;;19.80;1.00;;;;;;12483006;23;20183;-89
2023/06/15 09:59:29;;;;;;;8.40;4.32;;;19.60;2.40;;;;;;12628020;23;20341;-78
2023/06/15 10:04:52;;;;;;;6.43;4.10;;;19.30;1.00;;;;;;12503534;23;20200;-79
2023/06/15 10:10:16;;;;;;;9.55;3.92;;;19.10;99.90;;;;;;12503370;23;20218;-82
2023/06/15 10:15:38;;;;;;;4.75;4.00;;;19.10;1.00;;;;;;12482694;23;20180;-90
2023/06/15 10:21:04;;;;;;;6.97;3.50;;;18.90;99.90;;;;;;12628331;23;20178;-81
2023/06/15 10:26:26;;;;;;;5.25;3.97;;;18.80;99.90;;;;;;12569080;23;20230;-91
2023/06/15 10:32:27;;;;;;;7.20;4.15;;;19.30;1.00;;;;;;12587262;23;20219;-81
2023/06/15 10:38:10;;;;;;;8.70;4.38;;;20.60;1.00;;;;;;12482636;23;20255;-79
2023/06/15 10:43:32;;;;;;;6.57;4.20;;;21.70;1.00;;;;;;12501883;23;20199;-78
2023/06/15 10:48:53;;;;;;;7.30;4.07;;;21.60;1.00;;;;;;12482500;23;20490;-82
2023/06/15 10:54:26;;;;;;;5.50;4.78;;;21.30;99.90;;;;;;12503792;23;20199;-80
2023/06/15 10:59:56;;;;;;;8.77;4.63;;;21.00;1.00;;;;;;12502970;23;20165;-77
2023/06/15 11:05:21;;;;;;;8.23;4.93;;;20.80;1.00;;;;;;12500851;23;20274;-81
2023/06/15 11:10:43;;;;;;;5.68;4.07;;;20.50;99.90;;;;;;12482658;23;20222;-79
2023/06/15 11:16:10;;;;;;;7.45;4.40;;;20.40;1.00;;;;;;12565919;23;20309;-79
2023/06/15 11:21:32;;;;;;;8.23;4.75;;;20.40;1.00;;;;;;12566361;23;20247;-84
2023/06/15 11:26:55;;;;;;;5.93;5.10;;;20.30;1.00;;;;;;12584946;23;20199;-77
2023/06/15 11:32:16;;;;;;;16.58;8.65;;;20.40;99.90;;;;;;12499451;23;20513;-76
2023/06/15 11:37:37;;;;;;;18.98;9.93;;;20.30;1.00;;;;;;12500386;23;20176;-78
2023/06/15 11:42:59;;;;;;;15.55;8.10;;;20.30;1.00;;;;;;12501069;23;20192;-78
2023/06/15 11:48:19;;;;;;;6.95;4.45;;;20.30;99.90;;;;;;12502448;23;20172;-78
2023/06/15 11:53:42;;;;;;;7.18;4.90;;;20.20;1.00;;;;;;12503296;23;20175;-79
2023/06/15 11:59:03;;;;;;;10.63;6.35;;;20.10;1.00;;;;;;12502284;23;20172;-79
2023/06/15 12:04:30;;;;;;;14.20;8.80;;;19.90;1.00;;;;;;12499029;23;20227;-78
2023/06/15 12:09:52;;;;;;;23.20;12.38;;;19.80;1.00;;;;;;12500428;23;20209;-78
2023/06/15 12:15:17;;;;;;;25.05;12.43;;;19.70;1.00;;;;;;12500958;23;20207;-78
2023/06/15 12:20:39;;;;;;;16.65;8.55;;;19.60;1.00;;;;;;12501039;23;20200;-78
2023/06/15 12:26:03;;;;;;;6.65;5.05;;;19.50;1.00;;;;;;12502104;23;20199;-78
2023/06/15 12:31:32;;;;;;;6.00;3.75;;;19.70;1.00;;;;;;12501546;23;20188;-78
2023/06/15 12:36:56;;;;;;;10.00;5.28;;;19.90;1.00;;;;;;12501273;23;20255;-79
2023/06/15 12:42:22;;;;;;;7.38;4.32;;;20.20;1.00;;;;;;12480121;23;20176;-78
2023/06/15 12:47:43;;;;;;;8.05;4.53;;;20.40;1.00;;;;;;12480032;23;20187;-80
2023/06/15 12:53:05;;;;;;;7.45;3.60;;;20.50;1.00;;;;;;12500880;23;20210;-78
2023/06/15 12:58:25;;;;;;;9.25;4.55;;;20.40;1.00;;;;;;12502467;23;20176;-79
2023/06/15 13:03:47;;;;;;;9.23;5.70;;;20.40;1.00;;;;;;12502956;23;20200;-80
2023/06/15 13:09:08;;;;;;;14.15;5.90;;;20.50;1.00;;;;;;12503491;23;20164;-80
2023/06/15 13:14:29;;;;;;;9.45;6.55;;;20.70;99.90;;;;;;12502378;23;20230;-79
2023/06/15 13:19:51;;;;;;;18.23;11.32;;;20.80;12.00;;;;;;12504165;23;20179;-79
2023/06/15 13:25:12;;;;;;;10.52;6.43;;;20.90;1.00;;;;;;12504249;23;20367;-80
2023/06/15 13:30:34;;;;;;;8.77;6.88;;;21.10;1.00;;;;;;12503511;23;20199;-80
2023/06/15 13:35:57;;;;;;;5.93;4.55;;;21.70;99.90;;;;;;12502549;23;20191;-81
2023/06/15 13:41:18;;;;;;;6.13;5.13;;;21.60;99.90;;;;;;12629050;23;20172;-84
2023/06/15 13:46:42;;;;;;;12.75;4.82;;;21.50;99.90;;;;;;12503707;23;20200;-79
2023/06/15 13:52:04;;;;;;;9.95;5.25;;;21.50;99.90;;;;;;12503837;23;20188;-74
2023/06/15 13:57:25;;;;;;;11.27;6.18;;;21.40;99.90;;;;;;12482720;23;20199;-81
2023/06/15 14:02:47;;;;;;;7.78;4.43;;;21.60;99.90;;;;;;12503753;23;20230;-86
2023/06/15 14:08:08;;;;;;;6.53;5.05;;;21.90;99.90;;;;;;12485041;23;20176;-80
2023/06/15 14:13:30;;;;;;;8.88;6.20;;;21.70;99.90;;;;;;12502355;23;20192;-79
2023/06/15 14:18:54;;;;;;;10.57;6.78;;;21.40;99.90;;;;;;12504265;23;20171;-84
2023/06/15 14:24:17;;;;;;;12.73;4.95;;;21.10;99.90;;;;;;12587577;23;20219;-81
2023/06/15 14:29:39;;;;;;;10.85;5.22;;;21.40;99.90;;;;;;12505219;23;20439;-78
2023/06/15 14:35:00;;;;;;;7.95;4.78;;;21.60;99.90;;;;;;12503794;23;20280;-87
2023/06/15 14:40:22;;;;;;;9.13;5.10;;;21.60;99.90;;;;;;12504913;23;20167;-86
2023/06/15 14:45:43;;;;;;;5.53;4.68;;;21.70;83.40;;;;;;12503493;23;20204;-78
2023/06/15 14:51:04;;;;;;;7.53;4.15;;;21.90;49.30;;;;;;12503805;23;20716;-79
2023/06/15 14:56:29;;;;;;;6.05;4.57;;;21.90;88.50;;;;;;12504094;23;20176;-79
2023/06/15 15:01:50;;;;;;;8.73;4.70;;;21.80;9.40;;;;;;12502479;23;20180;-77
2023/06/15 15:07:11;;;;;;;9.63;4.70;;;21.60;42.00;;;;;;12504094;23;20254;-77
2023/06/15 15:12:33;;;;;;;11.27;5.00;;;21.50;75.80;;;;;;12503060;23;20219;-79
2023/06/15 15:17:54;;;;;;;5.65;4.10;;;21.50;5.60;;;;;;12509553;23;20152;-79
2023/06/15 15:23:16;;;;;;;5.97;3.83;;;21.30;94.20;;;;;;12509685;23;20761;-76
2023/06/15 15:28:38;;;;;;;8.32;4.13;;;21.10;99.90;;;;;;12491654;23;20179;-77
2023/06/15 15:34:00;;;;;;;3.95;3.58;;;21.00;99.90;;;;;;12516938;23;20469;-77
2023/06/15 15:39:22;;;;;;;5.40;3.50;;;20.80;99.90;;;;;;12513649;23;20175;-78
2023/06/15 15:44:43;;;;;;;4.32;3.70;;;20.60;99.90;;;;;;12512294;23;20498;-77
2023/06/15 15:50:05;;;;;;;4.53;3.70;;;20.50;15.40;;;;;;12512043;23;20230;-79
2023/06/15 15:55:28;;;;;;;4.63;3.47;;;20.40;99.90;;;;;;12513493;23;20235;-78
2023/06/15 16:00:49;;;;;;;3.97;3.40;;;20.50;99.90;;;;;;12519514;23;20172;-78
2023/06/15 16:06:11;;;;;;;5.13;4.00;;;20.40;99.90;;;;;;12521291;23;20199;-77
2023/06/15 16:11:33;;;;;;;7.30;3.30;;;20.40;99.90;;;;;;12520166;23;20164;-77
2023/06/15 16:16:55;;;;;;;6.50;3.70;;;20.30;88.70;;;;;;12513806;23;20168;-77
2023/06/15 16:22:17;;;;;;;8.50;4.25;;;20.40;53.00;;;;;;12510178;23;20230;-80
2023/06/15 16:27:38;;;;;;;6.90;4.20;;;20.50;40.50;;;;;;12510656;23;20192;-78
2023/06/15 16:32:59;;;;;;;6.63;4.13;;;20.60;1.00;;;;;;12622977;23;20203;-79
2023/06/15 16:38:20;;;;;;;5.80;3.45;;;20.80;1.00;;;;;;12492653;23;20498;-77
2023/06/15 16:43:42;;;;;;;7.32;3.63;;;20.90;12.80;;;;;;12595536;23;20192;-77
2023/06/15 16:49:04;;;;;;;7.70;3.60;;;20.70;99.90;;;;;;12510825;23;20165;-78
2023/06/15 16:54:26;;;;;;;8.02;3.97;;;20.40;99.90;;;;;;12490080;23;20176;-78
2023/06/15 16:59:48;;;;;;;4.97;3.55;;;19.90;1.00;;;;;;12510419;23;20359;-78
2023/06/15 17:05:10;;;;;;;7.43;3.83;;;19.70;99.90;;;;;;12510091;23;20227;-77
2023/06/15 17:10:32;;;;;;;10.25;4.57;;;19.50;99.90;;;;;;12509922;23;20224;-77
2023/06/15 17:15:53;;;;;;;8.40;4.82;;;19.30;1.00;;;;;;12509011;23;20168;-78
2023/06/15 17:21:14;;;;;;;7.25;4.05;;;19.10;1.00;;;;;;12510975;23;20275;-77
2023/06/15 17:26:39;;;;;;;8.77;4.63;;;19.00;1.00;;;;;;12510727;23;20241;-76
2023/06/15 17:32:00;;;;;;;12.20;5.28;;;18.90;99.90;;;;;;12510001;23;20187;-77
2023/06/15 17:37:21;;;;;;;12.02;5.85;;;18.80;1.00;;;;;;12509819;23;20164;-77
2023/06/15 17:42:43;;;;;;;13.43;5.10;;;18.60;1.00;;;;;;12508614;23;20167;-77
2023/06/15 17:48:04;;;;;;;7.88;4.30;;;18.50;99.90;;;;;;12509686;23;20178;-76
2023/06/15 17:53:27;;;;;;;10.48;5.97;;;18.40;99.90;;;;;;12509103;23;20176;-76
2023/06/15 17:58:49;;;;;;;10.55;4.80;;;18.40;99.90;;;;;;12509101;23;20232;-76
2023/06/15 18:04:10;;;;;;;5.90;3.85;;;18.40;99.90;;;;;;12511419;23;20215;-77
2023/06/15 18:09:31;;;;;;;8.25;4.75;;;18.20;1.00;;;;;;12508894;23;20191;-77
2023/06/15 18:14:53;;;;;;;7.40;4.60;;;18.10;1.00;;;;;;12508026;23;20176;-78
2023/06/15 18:20:14;;;;;;;7.38;4.93;;;18.00;1.00;;;;;;12634206;23;20508;-77
2023/06/15 18:25:36;;;;;;;10.73;5.00;;;17.90;99.90;;;;;;12508650;23;20192;-77
2023/06/15 18:30:57;;;;;;;6.03;3.08;;;17.90;1.00;;;;;;12488332;23;20179;-77
2023/06/15 18:36:18;;;;;;;2.65;1.83;;;17.60;1.00;;;;;;12488332;23;20176;-77
2023/06/15 18:41:40;;;;;;;5.82;2.67;;;17.30;1.00;;;;;;12509104;23;20207;-77
2023/06/15 18:47:01;;;;;;;3.03;2.30;;;17.30;50.00;;;;;;12508396;23;20213;-78
2023/06/15 18:52:22;;;;;;;6.40;2.60;;;17.30;1.00;;;;;;12509373;23;20486;-77
2023/06/15 18:57:43;;;;;;;3.25;2.45;;;17.20;1.00;;;;;;12508858;23;20167;-77
2023/06/15 19:03:04;;;;;;;2.58;2.15;;;17.20;1.00;;;;;;12509730;23;20221;-77
2023/06/15 19:08:25;;;;;;;3.63;2.17;;;17.30;1.00;;;;;;12528523;23;20179;-77
2023/06/15 19:13:47;;;;;;;2.95;2.08;;;17.30;1.00;;;;;;12508819;23;20171;-77
2023/06/15 19:19:08;;;;;;;4.40;2.38;;;17.20;99.90;;;;;;12509669;23;20171;-76
2023/06/15 19:24:30;;;;;;;5.68;3.63;;;17.20;1.00;;;;;;12509196;23;20198;-76
2023/06/15 19:29:52;;;;;;;3.53;2.78;;;17.10;99.90;;;;;;12508054;23;20202;-76
2023/06/15 19:35:14;;;;;;;4.70;3.45;;;16.90;99.90;;;;;;12509197;23;20380;-77
2023/06/15 19:40:35;;;;;;;6.68;3.60;;;16.90;1.00;;;;;;12508720;23;20167;-77
2023/06/15 19:45:59;;;;;;;7.88;3.72;;;16.80;99.90;;;;;;12509200;23;20377;-76
2023/06/15 19:51:20;;;;;;;4.05;2.83;;;16.80;99.90;;;;;;12509174;23;20171;-76
2023/06/15 19:56:43;;;;;;;3.10;2.80;;;16.80;99.90;;;;;;12507019;23;20279;-76
2023/06/15 20:02:04;;;;;;;6.03;3.38;;;16.80;1.00;;;;;;12507847;23;20167;-76
2023/06/15 20:07:26;;;;;;;6.97;4.30;;;16.70;1.00;;;;;;12487450;23;20452;-76
2023/06/15 20:12:48;;;;;;;4.18;3.05;;;16.70;99.90;;;;;;12467259;23;20175;-78
2023/06/15 20:18:09;;;;;;;5.13;3.28;;;16.90;1.00;;;;;;12507193;23;20239;-77
2023/06/15 20:23:31;;;;;;;7.65;4.45;;;16.70;1.00;;;;;;12506533;23;20175;-76
2023/06/15 20:28:53;;;;;;;9.45;4.43;;;16.60;1.00;;;;;;12509093;23;20182;-77
2023/06/15 20:34:16;;;;;;;5.25;4.20;;;;;;;;;;12508033;23;20450;-77
2023/06/15 20:39:44;;;;;;;7.30;3.42;;;;;;;;;;12507474;23;20190;-77
2023/06/15 20:45:08;;;;;;;3.53;2.92;;;;;;;;;;12508084;23;20194;-77
2023/06/15 20:50:30;;;;;;;6.70;3.22;;;;;;;;;;12507895;23;20176;-76
2023/06/15 20:55:54;;;;;;;3.95;2.80;;;;;;;;;;12506573;23;20180;-77
2023/06/15 21:01:15;;;;;;;5.40;2.97;;;16.30;17.90;;;;;;12508328;23;20222;-77
2023/06/15 21:06:39;;;;;;;5.88;3.58;;;15.80;70.90;;;;;;12506361;23;20203;-77
2023/06/15 21:12:03;;;;;;;3.55;3.20;;;16.30;99.90;;;;;;12631670;23;20173;-76
2023/06/15 21:17:26;;;;;;;4.75;2.70;;;16.20;41.10;;;;;;12510945;23;20178;-77
2023/06/15 21:22:48;;;;;;;2.60;2.30;;;16.20;9.20;;;;;;12510442;23;20167;-77
2023/06/15 21:28:11;;;;;;;3.00;2.40;;;;;;;;;;12510640;23;20195;-77
2023/06/15 21:33:34;;;;;;;4.05;3.33;;;16.10;99.90;;;;;;12509061;23;20196;-77
2023/06/15 21:38:58;;;;;;;4.53;3.90;;;;;;;;;;12510393;23;20217;-76
2023/06/15 21:44:20;;;;;;;5.43;3.53;;;;;;;;;;12510592;23;20218;-77
2023/06/15 21:49:44;;;;;;;4.43;3.55;;;16.10;99.90;;;;;;12510345;23;20218;-77
2023/06/15 21:55:06;;;;;;;8.02;4.53;;;;;;;;;;12510033;23;20194;-77
2023/06/15 22:00:28;;;;;;;8.18;4.30;;;;;;;;;;12509131;23;20176;-77
2023/06/15 22:05:53;;;;;;;7.53;4.20;;;;;;;;;;12510138;23;20272;-77
2023/06/15 22:11:14;;;;;;;4.10;3.45;;;;;;;;;;12509779;23;20187;-77
2023/06/15 22:16:39;;;;;;;5.45;3.90;;;15.90;43.60;;;;;;12509176;23;20171;-77
2023/06/15 22:22:02;;;;;;;8.35;4.88;;;15.80;99.90;;;;;;12508295;23;20175;-77
2023/06/15 22:27:24;;;;;;;6.43;4.65;;;15.80;1.00;;;;;;12509386;23;20254;-76
2023/06/15 22:32:53;;;;;;;6.85;4.75;;;15.80;1.00;;;;;;12509534;23;20190;-77
2023/06/15 22:38:14;;;;;;;7.10;4.45;;;15.80;1.00;;;;;;12508179;23;20176;-76
2023/06/15 22:43:36;;;;;;;4.95;3.50;;;15.80;1.00;;;;;;12508880;23;20168;-76
2023/06/15 22:48:58;;;;;;;5.35;4.38;;;15.70;99.90;;;;;;12508036;23;20202;-77
2023/06/15 22:54:19;;;;;;;6.82;4.30;;;15.70;99.90;;;;;;12509442;23;20170;-81
2023/06/15 22:59:44;;;;;;;5.72;4.63;;;15.70;99.90;;;;;;12509880;23;20181;-77
2023/06/15 23:05:06;;;;;;;6.32;4.93;;;15.70;1.00;;;;;;12509615;23;20282;-77
2023/06/15 23:10:27;;;;;;;6.28;4.65;;;15.70;1.00;;;;;;12509223;23;20193;-77
2023/06/15 23:15:52;;;;;;;4.55;4.05;;;15.70;99.90;;;;;;12509392;23;20171;-77
2023/06/15 23:21:14;;;;;;;6.15;3.65;;;15.60;1.00;;;;;;12509279;23;20167;-76
2023/06/15 23:26:39;;;;;;;4.28;3.83;;;15.50;1.00;;;;;;12509474;23;20203;-77
2023/06/15 23:32:00;;;;;;;5.30;3.85;;;15.50;1.00;;;;;;12509003;23;20265;-77
2023/06/15 23:37:21;;;;;;;6.10;4.40;;;15.40;99.90;;;;;;12508687;23;20171;-76
2023/06/15 23:42:42;;;;;;;6.18;4.28;;;15.40;99.90;;;;;;12509419;23;20243;-77
2023/06/15 23:48:04;;;;;;;5.15;3.70;;;15.30;99.90;;;;;;12508801;23;20614;-77
2023/06/15 23:53:25;;;;;;;4.82;3.58;;;15.20;1.00;;;;;;12508886;23;20192;-77
2023/06/15 23:58:47;;;;;;;5.85;4.00;;;15.10;1.00;;;;;;12507838;23;20205;-77
